Time;durP1;ratioP1;P1;durP2;ratioP2;P2;SDS_P1;SDS_P2;PMS_P1;PMS_P2;Temp;Humidity;BMP_temperature;BMP_pressure;BME280_temperature;BME280_humidity;BME280_pressure;Samples;Min_cycle;Max_cycle;Signal;HPM_P1;HPM_P2
2022/05/30 00:01:21;;;;;;;9.32;8.52;;;;;;;14.55;53.73;99681.22;4965379;28;101812;-82
2022/05/30 00:03:47;;;;;;;9.52;8.73;;;;;;;14.66;53.29;99680.53;4977169;28;96980;-83
2022/05/30 00:06:15;;;;;;;10.23;9.30;;;;;;;14.61;53.28;99688.78;4995407;28;98083;-83
2022/05/30 00:08:41;;;;;;;9.55;8.82;;;;;;;14.46;53.29;99677.31;4991411;28;97391;-83
2022/05/30 00:11:11;;;;;;;9.52;8.75;;;;;;;14.53;53.22;99679.63;4990333;28;97859;-82
2022/05/30 00:13:37;;;;;;;9.20;8.60;;;;;;;14.53;52.92;99679.63;4983495;28;96820;-82
2022/05/30 00:16:11;;;;;;;9.30;8.60;;;;;;;14.46;53.19;99682.59;5007594;28;96835;-82
2022/05/30 00:18:37;;;;;;;9.65;8.77;;;;;;;14.39;53.04;99673.31;5007561;28;98113;-83
2022/05/30 00:21:03;;;;;;;9.32;8.55;;;;;;;14.31;52.84;99670.31;5019513;28;101504;-83
2022/05/30 00:23:29;;;;;;;9.77;8.85;;;;;;;14.26;53.16;99662.66;5004820;28;96946;-83
2022/05/30 00:25:55;;;;;;;9.75;8.70;;;;;;;14.24;53.19;99666.34;4998928;28;97386;-81
2022/05/30 00:28:21;;;;;;;9.10;8.30;;;;;;;14.32;53.25;99653.53;5005342;28;97325;-83
2022/05/30 00:30:47;;;;;;;10.18;9.18;;;;;;;14.34;53.04;99656.06;4995341;28;100919;-83
2022/05/30 00:33:14;;;;;;;9.48;8.68;;;;;;;14.37;53.12;99664.66;4982358;28;96962;-83
2022/05/30 00:35:40;;;;;;;9.43;8.63;;;;;;;14.50;52.83;99676.16;4961200;28;97346;-83
2022/05/30 00:38:06;;;;;;;11.02;8.43;;;;;;;14.49;52.68;99677.13;4978096;28;101529;-83
2022/05/30 00:40:32;;;;;;;12.40;8.88;;;;;;;14.50;52.63;99670.03;4974522;28;98505;-83
2022/05/30 00:43:23;;;;;;;9.23;8.40;;;;;;;14.20;53.12;99649.84;4957247;28;96683;-82
2022/05/30 00:45:49;;;;;;;9.38;8.50;;;;;;;14.26;53.70;99665.31;4983239;28;97119;-82
2022/05/30 00:48:15;;;;;;;10.25;9.38;;;;;;;14.21;53.46;99666.50;4958949;28;101238;-81
2022/05/30 00:50:41;;;;;;;9.52;8.63;;;;;;;14.25;53.55;99660.97;4982661;28;101383;-83
2022/05/30 00:53:07;;;;;;;10.30;9.27;;;;;;;14.02;54.05;99635.06;4999279;28;97151;-83
2022/05/30 00:55:34;;;;;;;10.27;9.35;;;;;;;14.15;53.42;99665.09;4959765;28;98291;-82
2022/05/30 00:58:00;;;;;;;10.65;9.60;;;;;;;14.18;52.96;99661.41;4989403;28;97530;-82
2022/05/30 01:00:27;;;;;;;11.50;9.50;;;;;;;14.29;52.99;99656.34;4975795;28;101234;-82
2022/05/30 01:08:28;;;;;;;9.77;8.18;;;;;;;13.96;54.51;99631.03;4995151;28;101756;-82
2022/05/30 01:10:54;;;;;;;10.57;8.70;;;;;;;14.11;54.12;99660.94;4999178;28;101280;-82
2022/05/30 01:13:20;;;;;;;13.13;8.80;;;;;;;14.13;54.63;99653.75;4977479;28;97251;-82
2022/05/30 01:15:45;;;;;;;9.27;8.50;;;;;;;14.28;54.05;99659.91;4964633;28;96989;-83
2022/05/30 01:18:20;;;;;;;10.18;9.18;;;;;;;14.15;54.59;99661.59;4978649;28;101693;-83
2022/05/30 01:20:49;;;;;;;9.77;8.88;;;;;;;14.11;54.77;99655.66;4979086;28;101715;-82
2022/05/30 01:23:45;;;;;;;9.85;9.02;;;;;;;14.22;54.47;99655.00;4993380;28;97020;-83
2022/05/30 01:27:04;;;;;;;10.45;9.35;;;;;;;13.96;55.07;99661.81;4976763;28;97565;-83
2022/05/30 01:29:38;;;;;;;11.20;9.23;;;;;;;14.03;54.96;99655.25;4980728;28;100792;-83
2022/05/30 01:32:04;;;;;;;10.43;9.40;;;;;;;14.04;55.44;99654.31;4986486;28;101433;-83
2022/05/30 01:34:30;;;;;;;10.07;9.13;;;;;;;13.95;55.09;99650.41;5007489;28;97249;-83
2022/05/30 01:36:55;;;;;;;10.10;9.02;;;;;;;13.71;55.78;99651.84;5005943;28;96824;-82
2022/05/30 01:39:28;;;;;;;9.93;9.07;;;;;;;13.61;55.74;99629.56;4987882;28;99836;-83
2022/05/30 01:41:55;;;;;;;10.18;9.30;;;;;;;13.85;54.90;99622.88;4984051;28;100834;-83
2022/05/30 01:44:20;;;;;;;9.90;8.88;;;;;;;13.84;55.40;99652.81;4983123;28;96795;-83
2022/05/30 01:46:46;;;;;;;9.85;8.93;;;;;;;13.80;55.73;99660.06;4983690;28;96926;-83
2022/05/30 01:49:12;;;;;;;10.60;9.50;;;;;;;13.74;56.12;99667.50;4996347;28;100386;-83
2022/05/30 01:51:39;;;;;;;11.13;10.02;;;;;;;13.40;56.67;99627.22;5009383;28;100396;-83
2022/05/30 01:54:06;;;;;;;12.80;9.55;;;;;;;13.42;56.87;99642.97;4977634;28;96791;-83
2022/05/30 01:56:34;;;;;;;10.60;9.68;;;;;;;13.61;56.14;99653.31;4976276;28;97192;-83
2022/05/30 01:59:00;;;;;;;10.32;9.35;;;;;;;13.58;56.11;99659.59;4975698;28;101101;-83
2022/05/30 02:01:46;;;;;;;10.10;9.13;;;;;;;13.60;55.70;99660.38;5010575;28;97798;-83
2022/05/30 02:04:15;;;;;;;10.57;9.45;;;;;;;13.44;55.98;99631.41;4999788;28;97045;-82
2022/05/30 02:06:40;;;;;;;10.40;9.35;;;;;;;13.51;55.68;99651.19;4986895;28;97479;-83
2022/05/30 02:09:07;;;;;;;11.07;10.05;;;;;;;13.56;55.55;99643.03;5005886;28;98203;-83
2022/05/30 02:11:33;;;;;;;10.55;8.90;;;;;;;13.57;55.50;99652.63;4982635;28;101261;-83
2022/05/30 02:14:19;;;;;;;10.45;9.35;;;;;;;13.52;55.66;99630.94;5001854;28;96751;-82
2022/05/30 02:19:32;;;;;;;10.05;9.05;;;;;;;13.65;54.42;99642.50;4998777;28;100760;-82
2022/05/30 02:22:00;;;;;;;9.80;8.98;;;;;;;13.75;54.46;99643.66;4982100;28;101235;-83
2022/05/30 02:24:26;;;;;;;10.13;9.25;;;;;;;13.62;54.99;99639.19;4993535;28;96732;-82
2022/05/30 02:26:51;;;;;;;9.57;8.77;;;;;;;13.69;54.70;99641.38;4994472;28;97267;-83
2022/05/30 02:29:18;;;;;;;10.88;8.95;;;;;;;13.84;54.57;99641.44;4958530;28;99609;-83
2022/05/30 02:31:54;;;;;;;8.18;7.57;;;;;;;13.80;54.08;99636.34;4975280;28;101296;-82
2022/05/30 02:37:04;;;;;;;10.85;8.88;;;;;;;13.73;53.62;99628.84;5009273;28;96778;-83
2022/05/30 02:39:30;;;;;;;8.80;7.97;;;;;;;13.80;53.60;99643.41;4990018;28;101573;-83
2022/05/30 02:42:14;;;;;;;8.90;8.02;;;;;;;13.76;54.05;99629.56;5003224;28;97029;-83
2022/05/30 02:44:40;;;;;;;8.60;7.90;;;;;;;13.84;53.51;99630.88;5005890;28;97123;-82
2022/05/30 02:47:06;;;;;;;10.10;8.48;;;;;;;13.76;53.72;99618.16;5001037;28;96989;-83
2022/05/30 02:49:33;;;;;;;10.93;8.80;;;;;;;13.87;53.95;99628.91;4957430;28;98752;-82
2022/05/30 02:51:59;;;;;;;12.40;8.60;;;;;;;13.76;54.32;99634.81;4980491;28;101589;-83
2022/05/30 02:54:26;;;;;;;9.10;8.20;;;;;;;13.55;54.45;99607.88;4966084;28;97252;-82
2022/05/30 02:56:57;;;;;;;9.77;8.82;;;;;;;13.44;55.14;99620.84;4992266;28;97277;-81
2022/05/30 02:59:24;;;;;;;9.00;8.10;;;;;;;13.52;55.19;99650.25;4978766;28;100982;-81
2022/05/30 03:01:59;;;;;;;8.98;7.90;;;;;;;13.57;54.83;99642.94;4977496;28;100832;-83
2022/05/30 03:04:24;;;;;;;9.63;8.73;;;;;;;13.58;54.73;99647.28;4959535;28;97095;-82
2022/05/30 03:06:50;;;;;;;10.57;8.85;;;;;;;13.62;54.65;99645.31;5005973;28;96813;-83
2022/05/30 03:09:16;;;;;;;8.77;7.88;;;;;;;13.38;55.01;99629.13;4987271;28;101436;-83
2022/05/30 03:12:04;;;;;;;9.60;8.70;;;;;;;13.42;55.00;99658.78;4976473;28;100775;-83
2022/05/30 03:14:30;;;;;;;11.27;9.68;;;;;;;13.29;55.50;99646.28;4978255;28;97007;-83
2022/05/30 03:16:55;;;;;;;10.23;9.07;;;;;;;13.35;55.54;99660.91;4984006;28;97035;-81
2022/05/30 03:19:21;;;;;;;10.15;8.90;;;;;;;13.42;55.14;99653.50;4980225;28;101540;-82
2022/05/30 03:21:48;;;;;;;9.23;8.32;;;;;;;13.40;55.04;99650.09;4979059;28;102102;-83
2022/05/30 03:24:13;;;;;;;9.93;8.88;;;;;;;13.35;55.11;99663.53;4993028;28;97104;-83
2022/05/30 03:26:39;;;;;;;9.48;8.57;;;;;;;13.51;54.73;99656.47;4978064;28;97289;-83
2022/05/30 03:29:05;;;;;;;9.98;9.15;;;;;;;13.33;55.48;99654.88;4974397;28;101338;-82
2022/05/30 03:31:32;;;;;;;10.63;9.73;;;;;;;13.48;54.96;99654.00;4985368;28;101489;-82
2022/05/30 03:33:58;;;;;;;11.60;8.73;;;;;;;13.46;55.45;99658.50;5007579;28;98295;-82
2022/05/30 03:36:26;;;;;;;10.40;9.02;;;;;;;13.52;55.47;99670.50;4990746;28;97159;-81
2022/05/30 03:39:11;;;;;;;10.43;9.40;;;;;;;13.58;55.40;99662.22;5004648;28;97095;-83
2022/05/30 03:42:02;;;;;;;15.13;10.32;;;;;;;13.40;56.07;99640.41;5000036;28;97893;-82
2022/05/30 03:44:45;;;;;;;9.63;8.75;;;;;;;13.54;55.52;99671.28;4989451;28;97103;-82
2022/05/30 03:47:11;;;;;;;12.35;9.93;;;;;;;13.53;56.26;99674.84;4965972;28;96850;-83
2022/05/30 03:49:37;;;;;;;10.25;9.35;;;;;;;13.47;56.29;99676.03;4984521;28;101520;-83
2022/05/30 03:52:06;;;;;;;10.20;9.10;;;;;;;13.53;55.68;99680.97;4962638;28;97546;-83
2022/05/30 03:54:31;;;;;;;10.10;8.88;;;;;;;13.48;56.66;99688.28;4981354;28;97143;-82
2022/05/30 03:56:58;;;;;;;10.00;9.20;;;;;;;13.61;56.09;99675.25;4977054;28;97205;-82
2022/05/30 03:59:25;;;;;;;10.35;9.00;;;;;;;13.61;56.65;99669.13;4977638;28;100345;-81
2022/05/30 04:01:52;;;;;;;11.65;9.75;;;;;;;13.67;56.79;99674.94;4959803;28;101416;-83
2022/05/30 04:04:18;;;;;;;10.82;10.00;;;;;;;13.48;57.81;99683.00;4958541;28;96887;-84
2022/05/30 04:06:43;;;;;;;11.15;8.25;;;;;;;13.56;57.35;99677.31;4970561;28;97382;-83
2022/05/30 04:09:10;;;;;;;14.77;9.13;;;;;;;13.44;58.04;99685.88;4987233;28;101434;-83
2022/05/30 04:11:56;;;;;;;9.43;7.72;;;;;;;13.48;57.96;99676.91;4980213;28;97273;-83
2022/05/30 04:14:59;;;;;;;9.45;6.75;;;;;;;13.42;58.71;99675.44;4973608;28;97099;-83
2022/05/30 04:17:31;;;;;;;7.67;6.93;;;;;;;13.56;58.52;99675.53;4992020;28;96988;-82
2022/05/30 04:19:59;;;;;;;7.95;7.22;;;;;;;13.53;58.25;99666.94;4978334;28;101637;-83
2022/05/30 04:22:24;;;;;;;14.73;7.75;;;;;;;13.61;57.75;99671.75;4995495;28;101466;-81
2022/05/30 04:25:18;;;;;;;8.27;7.47;;;;;;;13.35;58.43;99656.50;4980702;28;97347;-83
2022/05/30 04:27:43;;;;;;;8.50;7.07;;;;;;;13.45;58.97;99682.34;4974004;28;97473;-83
2022/05/30 04:30:09;;;;;;;8.38;7.20;;;;;;;13.67;58.30;99674.03;4973523;28;101052;-83
2022/05/30 04:32:45;;;;;;;7.75;7.00;;;;;;;13.68;58.16;99662.59;4993414;28;102003;-83
2022/05/30 04:35:11;;;;;;;8.10;6.82;;;;;;;13.64;58.38;99684.78;4973732;28;96767;-84
2022/05/30 04:37:37;;;;;;;7.43;6.72;;;;;;;13.64;58.13;99677.72;4989523;28;97311;-83
2022/05/30 04:40:19;;;;;;;7.07;6.38;;;;;;;13.52;58.68;99687.16;5003874;28;100367;-83
2022/05/30 04:43:03;;;;;;;7.30;6.57;;;;;;;13.54;58.73;99681.81;4988518;28;97050;-82
2022/05/30 04:45:47;;;;;;;11.25;8.07;;;;;;;13.61;58.59;99684.94;4986933;28;96732;-83
2022/05/30 04:48:21;;;;;;;8.25;6.80;;;;;;;13.70;58.45;99684.41;4959785;28;97105;-84
2022/05/30 04:50:46;;;;;;;9.02;7.22;;;;;;;13.64;58.74;99687.41;4972651;28;97622;-83
2022/05/30 04:53:13;;;;;;;8.05;7.00;;;;;;;13.58;58.66;99680.69;4959614;28;101379;-84
2022/05/30 04:55:58;;;;;;;8.25;7.40;;;;;;;13.50;59.52;99690.84;4978798;28;97530;-83
2022/05/30 04:58:34;;;;;;;8.30;7.47;;;;;;;13.47;59.69;99691.03;4978222;28;96875;-85
2022/05/30 05:01:09;;;;;;;8.82;7.00;;;;;;;13.32;59.69;99672.47;4961918;28;101968;-84
2022/05/30 05:03:37;;;;;;;7.38;6.78;;;;;;;13.34;60.35;99693.47;4966206;28;101237;-82
2022/05/30 05:06:08;;;;;;;10.43;7.85;;;;;;;13.33;60.87;99686.50;4972795;28;96862;-83
2022/05/30 05:09:18;;;;;;;8.95;8.02;;;;;;;13.53;60.27;99699.44;5006246;28;96746;-83
2022/05/30 05:12:02;;;;;;;9.05;6.97;;;;;;;13.47;60.41;99677.84;5006083;28;97238;-84
2022/05/30 05:14:47;;;;;;;7.40;6.75;;;;;;;13.61;59.98;99687.59;4995470;28;97050;-83
2022/05/30 05:17:30;;;;;;;8.32;6.97;;;;;;;13.62;60.06;99699.84;4998442;28;96746;-84
2022/05/30 05:19:56;;;;;;;7.93;7.20;;;;;;;13.65;59.97;99691.78;4971082;28;97869;-83
2022/05/30 05:22:21;;;;;;;8.48;7.45;;;;;;;13.61;60.24;99701.63;4959216;28;101761;-83
2022/05/30 05:24:47;;;;;;;8.98;6.82;;;;;;;13.74;59.62;99694.72;4960510;28;100364;-84
2022/05/30 05:27:31;;;;;;;8.25;7.55;;;;;;;13.82;59.63;99704.84;4988942;28;97295;-83
2022/05/30 05:29:57;;;;;;;7.70;6.78;;;;;;;13.82;59.37;99710.97;4974821;28;97304;-84
2022/05/30 05:32:22;;;;;;;7.40;6.78;;;;;;;13.71;59.98;99697.53;4976038;28;100437;-83
2022/05/30 05:34:50;;;;;;;10.55;7.45;;;;;;;13.74;59.52;99701.78;4975581;28;99796;-84
2022/05/30 05:37:17;;;;;;;7.70;7.00;;;;;;;13.59;60.15;99704.34;4964212;28;96950;-79
2022/05/30 05:39:50;;;;;;;8.18;7.00;;;;;;;13.57;59.78;99700.94;5000806;28;97134;-83
2022/05/30 05:42:15;;;;;;;7.85;7.05;;;;;;;13.53;60.23;99712.63;4986351;28;102177;-82
2022/05/30 05:44:41;;;;;;;9.73;7.75;;;;;;;13.54;60.81;99708.19;5002137;28;101076;-82
2022/05/30 05:47:07;;;;;;;8.90;8.00;;;;;;;13.35;61.62;99708.34;4982163;28;96774;-81
2022/05/30 05:49:33;;;;;;;9.23;8.27;;;;;;;13.17;61.07;99689.09;5003266;28;96913;-81
2022/05/30 05:51:59;;;;;;;8.70;7.78;;;;;;;13.22;61.66;99697.59;4968443;28;100834;-81
2022/05/30 05:54:26;;;;;;;11.77;8.38;;;;;;;13.36;61.27;99692.47;4964850;28;101517;-82
2022/05/30 05:56:54;;;;;;;12.43;8.10;;;;;;;13.49;61.68;99724.25;4964658;28;97263;-82
2022/05/30 05:59:25;;;;;;;8.80;7.93;;;;;;;13.24;61.08;99671.19;5006193;28;96765;-82
2022/05/30 06:01:51;;;;;;;8.65;7.13;;;;;;;13.56;60.21;99720.34;4986706;28;99751;-81
2022/05/30 06:04:18;;;;;;;8.13;6.78;;;;;;;13.57;58.82;99708.00;4982449;28;101291;-81
2022/05/30 06:07:10;;;;;;;13.80;8.35;;;;;;;13.75;57.95;99719.31;4986367;28;98425;-81
2022/05/30 06:09:55;;;;;;;6.93;6.40;;;;;;;13.86;57.38;99716.06;4989477;28;97141;-81
2022/05/30 06:12:37;;;;;;;7.07;6.38;;;;;;;13.87;57.08;99702.78;4986514;28;101737;-81
2022/05/30 06:15:04;;;;;;;9.00;6.18;;;;;;;13.98;57.02;99721.47;4960298;28;101253;-81
2022/05/30 06:17:32;;;;;;;10.40;8.07;;;;;;;14.11;56.56;99723.41;4979868;28;97479;-81
2022/05/30 06:19:59;;;;;;;7.65;6.00;;;;;;;14.05;56.59;99724.63;4956138;28;97325;-80
2022/05/30 06:22:25;;;;;;;6.75;6.18;;;;;;;13.99;57.11;99719.69;4973481;28;101635;-81
2022/05/30 06:24:51;;;;;;;8.25;6.07;;;;;;;13.98;57.29;99731.19;4974878;28;101595;-80
2022/05/30 06:27:36;;;;;;;7.10;6.35;;;;;;;14.00;57.02;99734.59;4964486;28;96647;-81
2022/05/30 06:30:22;;;;;;;6.88;5.70;;;;;;;13.96;57.36;99733.94;4978049;28;98924;-81
2022/05/30 06:32:49;;;;;;;6.45;5.93;;;;;;;13.90;57.49;99731.63;4975296;28;101153;-80
2022/05/30 06:35:24;;;;;;;7.00;6.30;;;;;;;13.76;57.77;99718.38;4961655;28;100863;-78
2022/05/30 06:37:49;;;;;;;6.32;5.70;;;;;;;13.92;58.32;99734.19;4976045;28;96855;-82
2022/05/30 06:40:17;;;;;;;7.50;6.30;;;;;;;14.00;57.56;99743.38;4959975;28;97195;-81
2022/05/30 06:42:46;;;;;;;6.45;5.85;;;;;;;14.00;57.60;99747.78;4961846;28;101777;-79
2022/05/30 06:45:37;;;;;;;6.47;5.88;;;;;;;13.86;58.16;99742.44;4985389;28;97379;-85
2022/05/30 06:48:21;;;;;;;8.02;6.18;;;;;;;13.91;57.65;99749.16;4972411;28;96710;-84
2022/05/30 06:51:09;;;;;;;8.95;6.35;;;;;;;13.97;58.62;99756.72;4989186;28;97032;-83
2022/05/30 06:53:36;;;;;;;8.68;6.72;;;;;;;14.10;58.64;99763.94;4980726;28;101141;-84
2022/05/30 06:56:02;;;;;;;7.10;5.82;;;;;;;14.11;58.39;99760.34;4989956;28;101595;-84
2022/05/30 06:58:33;;;;;;;6.53;5.63;;;;;;;14.01;59.16;99754.75;4986185;28;96682;-84
2022/05/30 07:01:01;;;;;;;7.05;6.38;;;;;;;14.16;59.42;99755.66;4978729;28;96933;-83
2022/05/30 07:03:32;;;;;;;6.60;6.00;;;;;;;14.08;59.73;99745.56;4986404;28;97961;-84
2022/05/30 07:06:22;;;;;;;9.07;6.75;;;;;;;14.13;60.99;99764.59;4993514;28;97075;-84
2022/05/30 07:09:06;;;;;;;12.95;6.80;;;;;;;14.23;60.73;99765.78;5005678;28;97388;-83
2022/05/30 07:11:38;;;;;;;9.02;6.80;;;;;;;14.28;60.78;99744.38;4983754;28;97089;-83
2022/05/30 07:14:09;;;;;;;7.63;6.93;;;;;;;14.15;61.43;99724.94;4988886;28;101087;-84
2022/05/30 07:16:36;;;;;;;16.40;12.10;;;;;;;14.25;62.10;99761.28;4987377;28;101232;-84
2022/05/30 07:19:03;;;;;;;11.70;9.65;;;;;;;14.31;61.81;99777.69;4973875;28;97987;-83
2022/05/30 07:21:31;;;;;;;8.95;7.15;;;;;;;14.19;62.45;99769.53;5007523;28;96851;-84
2022/05/30 07:24:15;;;;;;;7.88;6.47;;;;;;;14.38;61.85;99771.13;4999108;28;97097;-83
2022/05/30 07:26:59;;;;;;;7.32;6.57;;;;;;;14.31;61.84;99773.28;5006528;28;97263;-82
2022/05/30 07:29:43;;;;;;;8.63;6.82;;;;;;;14.48;62.02;99761.72;5004099;28;97188;-83
2022/05/30 07:32:44;;;;;;;7.60;7.00;;;;;;;14.73;61.27;99763.78;4976596;28;96664;-82
2022/05/30 07:35:28;;;;;;;7.45;6.32;;;;;;;15.03;60.45;99747.84;5002920;28;97102;-83
2022/05/30 07:38:14;;;;;;;6.68;6.07;;;;;;;15.15;60.46;99765.63;4981608;28;97691;-82
2022/05/30 07:40:58;;;;;;;11.82;6.57;;;;;;;15.33;60.56;99771.56;4979106;28;97795;-82
2022/05/30 07:43:26;;;;;;;8.05;6.90;;;;;;;15.27;61.06;99748.16;5002209;28;96951;-83
2022/05/30 07:46:21;;;;;;;7.28;6.63;;;;;;;15.40;60.05;99764.91;4974548;28;100712;-82
2022/05/30 07:48:51;;;;;;;7.10;6.43;;;;;;;15.41;59.88;99768.41;5011137;28;98590;-83
2022/05/30 07:51:32;;;;;;;7.63;6.72;;;;;;;15.35;59.79;99774.09;5000748;28;96896;-82
2022/05/30 07:54:10;;;;;;;7.35;6.65;;;;;;;15.12;60.68;99749.91;4988047;28;96806;-82
2022/05/30 07:56:42;;;;;;;7.72;6.15;;;;;;;15.36;60.25;99776.66;4976466;28;102078;-83
2022/05/30 07:59:08;;;;;;;7.30;6.65;;;;;;;15.29;60.86;99777.97;4970664;28;101780;-82
2022/05/30 08:01:34;;;;;;;6.78;5.72;;;;;;;15.35;60.79;99777.56;4960456;28;97257;-82
2022/05/30 08:04:00;;;;;;;7.90;6.32;;;;;;;15.20;61.03;99765.31;4972572;28;96976;-81
2022/05/30 08:06:35;;;;;;;8.20;6.72;;;;;;;15.12;60.31;99776.34;4974145;28;97878;-82
2022/05/30 08:09:19;;;;;;;6.68;6.05;;;;;;;15.01;59.88;99775.31;4991202;28;97127;-81
2022/05/30 08:12:14;;;;;;;7.13;6.43;;;;;;;15.02;59.50;99783.16;4990129;28;99466;-82
2022/05/30 08:14:55;;;;;;;9.13;6.68;;;;;;;14.99;59.87;99777.22;4996040;28;97173;-82
2022/05/30 08:17:23;;;;;;;7.18;6.47;;;;;;;14.98;59.91;99762.28;4958786;28;101677;-80
2022/05/30 08:19:49;;;;;;;6.80;6.10;;;;;;;14.90;59.40;99768.06;4971559;28;101615;-82
2022/05/30 08:22:22;;;;;;;5.93;5.43;;;;;;;14.57;60.35;99710.16;4977031;28;96721;-81
2022/05/30 08:24:48;;;;;;;6.47;5.88;;;;;;;15.04;61.24;99783.06;4975091;28;96839;-82
2022/05/30 08:27:15;;;;;;;7.70;5.65;;;;;;;15.07;60.30;99774.97;4972368;28;101420;-83
2022/05/30 08:29:45;;;;;;;6.63;5.90;;;;;;;15.25;60.07;99780.91;4949944;28;101862;-82
2022/05/30 08:32:12;;;;;;;7.88;5.97;;;;;;;15.38;59.44;99784.47;4972579;28;96847;-82
2022/05/30 08:35:13;;;;;;;7.07;6.38;;;;;;;15.43;60.06;99789.50;4937924;28;99147;-82
2022/05/30 08:37:40;;;;;;;7.03;6.25;;;;;;;15.50;59.14;99796.91;4945581;28;101660;-82
2022/05/30 08:43:39;;;;;;;9.27;6.35;;;;;;;15.60;58.34;99795.41;4969922;28;96737;-82
2022/05/30 08:46:32;;;;;;;7.25;5.95;;;;;;;15.54;58.78;99802.91;4980893;28;97303;-82
2022/05/30 08:49:22;;;;;;;7.20;6.55;;;;;;;15.53;59.00;99799.41;4973361;28;98881;-82
2022/05/30 08:52:15;;;;;;;6.50;6.00;;;;;;;15.69;58.57;99795.81;4969621;28;101757;-75
2022/05/30 08:54:47;;;;;;;6.78;6.22;;;;;;;15.76;58.57;99794.47;4969608;28;100369;-74
2022/05/30 08:57:55;;;;;;;6.80;6.13;;;;;;;15.72;58.39;99766.50;4989762;28;96909;-78
2022/05/30 09:00:41;;;;;;;6.22;5.72;;;;;;;16.03;58.25;99797.16;4965010;28;101078;-74
2022/05/30 09:03:28;;;;;;;7.38;6.65;;;;;;;15.92;57.33;99787.25;4994057;28;97771;-74
2022/05/30 09:06:04;;;;;;;6.60;6.10;;;;;;;15.85;56.62;99796.53;4971863;28;97146;-75
2022/05/30 09:08:38;;;;;;;7.63;6.50;;;;;;;15.78;56.95;99796.06;4970301;28;97375;-74
2022/05/30 09:11:38;;;;;;;7.03;6.43;;;;;;;15.84;57.12;99802.78;4988376;28;97441;-74
2022/05/30 09:14:14;;;;;;;6.30;5.70;;;;;;;15.84;57.02;99805.41;4957598;28;101795;-74
2022/05/30 09:16:47;;;;;;;8.80;6.25;;;;;;;15.58;56.07;99791.16;4970402;28;98113;-75
2022/05/30 09:19:20;;;;;;;6.70;6.10;;;;;;;15.65;56.36;99807.50;4974047;28;97439;-75
2022/05/30 09:21:46;;;;;;;11.90;6.25;;;;;;;15.73;56.87;99802.59;4981004;28;101314;-74
2022/05/30 09:24:14;;;;;;;6.38;5.82;;;;;;;15.83;55.57;99812.50;4970455;28;100971;-74
2022/05/30 09:26:40;;;;;;;6.80;6.20;;;;;;;15.54;55.08;99809.03;4986167;28;98072;-75
2022/05/30 09:29:21;;;;;;;7.68;6.22;;;;;;;15.60;55.31;99808.63;4979124;28;96752;-75
2022/05/30 09:32:19;;;;;;;6.57;5.93;;;;;;;15.96;54.85;99809.91;4982517;28;97105;-74
2022/05/30 09:35:29;;;;;;;6.47;5.97;;;;;;;16.66;53.65;99785.88;5000061;28;98898;-74
2022/05/30 09:38:10;;;;;;;6.70;6.00;;;;;;;17.32;53.21;99809.69;4971012;28;97219;-73
2022/05/30 09:41:06;;;;;;;6.18;5.57;;;;;;;17.32;51.13;99817.66;4962846;28;97544;-73
2022/05/30 09:44:04;;;;;;;7.13;5.93;;;;;;;17.46;50.00;99812.22;4989711;28;99094;-73
2022/05/30 09:46:38;;;;;;;6.20;5.70;;;;;;;17.45;48.53;99802.53;4973844;28;101550;-74
2022/05/30 09:49:16;;;;;;;6.10;5.60;;;;;;;17.78;46.96;99809.13;4987351;28;97986;-74
2022/05/30 09:51:48;;;;;;;5.88;5.43;;;;;;;18.21;46.49;99782.06;4954511;28;96819;-81
2022/05/30 09:54:37;;;;;;;6.30;5.22;;;;;;;18.26;45.94;99795.84;4979040;28;100509;-77
2022/05/30 09:57:22;;;;;;;6.25;5.72;;;;;;;17.95;46.09;99802.56;4947021;28;101484;-79
2022/05/30 10:00:33;;;;;;;6.20;5.70;;;;;;;17.91;46.67;99795.78;4990233;28;97792;-78
2022/05/30 10:03:28;;;;;;;6.38;5.88;;;;;;;17.77;46.27;99796.75;4973532;28;97399;-78
2022/05/30 10:06:13;;;;;;;5.70;5.20;;;;;;;17.67;46.37;99809.00;4970722;28;99707;-78
2022/05/30 10:08:39;;;;;;;6.45;6.05;;;;;;;17.39;47.04;99800.34;4971058;28;101671;-78
2022/05/30 10:11:09;;;;;;;5.90;5.50;;;;;;;16.90;47.26;99766.63;5003133;28;97211;-79
2022/05/30 10:13:42;;;;;;;6.80;5.28;;;;;;;17.29;47.57;99802.78;4957001;28;97334;-82
2022/05/30 10:16:34;;;;;;;5.22;4.82;;;;;;;17.32;47.25;99794.63;4982823;28;97900;-81
2022/05/30 10:19:04;;;;;;;5.43;5.13;;;;;;;17.53;47.99;99802.84;4952484;28;101614;-81
2022/05/30 10:28:14;;;;;;;5.68;5.15;;;;;;;17.18;46.92;99798.22;4957235;28;97232;-81
2022/05/30 10:28:28;;;;;;;5.80;5.40;;;;;;;17.77;48.26;99794.97;4986544;28;97765;-81
2022/05/30 10:31:22;;;;;;;5.57;5.00;;;;;;;17.96;47.45;99802.47;4986728;28;97722;-82
2022/05/30 10:34:11;;;;;;;5.35;4.85;;;;;;;17.95;46.40;99797.25;4969630;28;97391;-81
2022/05/30 10:37:14;;;;;;;5.60;5.30;;;;;;;17.89;45.85;99795.91;4969909;28;97304;-81
2022/05/30 10:39:46;;;;;;;6.97;5.57;;;;;;;17.70;46.72;99800.81;4984483;28;101584;-76
2022/05/30 10:42:17;;;;;;;;;;;;;;;17.65;44.60;99806.44;4975858;28;101203;-75
2022/05/30 10:44:46;;;;;;;9.18;5.47;;;;;;;17.73;45.97;99801.44;4985768;28;96750;-75
2022/05/30 10:47:45;;;;;;;5.57;5.27;;;;;;;17.82;44.55;99797.31;4973036;28;97294;-76
2022/05/30 10:50:21;;;;;;;5.00;4.60;;;;;;;17.84;45.07;99768.84;4973574;28;100988;-75
2022/05/30 10:52:54;;;;;;;5.55;4.82;;;;;;;18.19;43.77;99786.66;4982745;28;97360;-76
2022/05/30 10:55:36;;;;;;;7.40;4.03;;;;;;;17.93;42.89;99780.59;4986545;28;97004;-74
2022/05/30 10:58:09;;;;;;;6.85;6.15;;;;;;;17.77;43.83;99778.16;5004587;28;96939;-75
2022/05/30 11:00:43;;;;;;;7.80;7.15;;;;;;;17.66;44.13;99797.53;4999807;28;100332;-76
2022/05/30 11:03:24;;;;;;;6.40;6.00;;;;;;;17.57;45.15;99787.56;4972717;28;101895;-76
2022/05/30 11:05:51;;;;;;;7.10;6.45;;;;;;;17.63;44.73;99787.16;4996752;28;97000;-72
2022/05/30 11:08:32;;;;;;;8.30;7.55;;;;;;;17.78;45.23;99779.91;4987933;28;97329;-72
2022/05/30 11:11:11;;;;;;;7.13;6.53;;;;;;;17.69;45.22;99783.22;4996227;28;100814;-73
2022/05/30 11:14:00;;;;;;;15.25;10.23;;;;;;;17.61;46.78;99791.72;4980990;28;101419;-74
2022/05/30 11:16:54;;;;;;;5.57;5.18;;;;;;;17.26;44.86;99794.22;4994910;28;97258;-71
2022/05/30 11:20:02;;;;;;;5.20;4.75;;;;;;;16.90;45.82;99799.31;4998942;28;97194;-75
2022/05/30 11:22:45;;;;;;;5.50;4.97;;;;;;;16.96;46.14;99788.28;4988601;28;99965;-75
2022/05/30 11:25:14;;;;;;;5.20;4.80;;;;;;;16.99;46.32;99779.28;4992733;28;101436;-74
2022/05/30 11:27:42;;;;;;;5.07;4.78;;;;;;;17.10;45.50;99786.47;4964781;28;97013;-74
2022/05/30 11:30:35;;;;;;;5.38;5.07;;;;;;;16.98;46.38;99796.94;4964867;28;98063;-74
2022/05/30 11:33:16;;;;;;;5.60;5.10;;;;;;;16.73;45.74;99802.22;4968559;28;101604;-74
2022/05/30 11:36:08;;;;;;;4.75;4.38;;;;;;;16.51;45.41;99803.66;4988211;28;100719;-73
2022/05/30 11:38:52;;;;;;;;;;;;;;;16.39;45.15;99800.97;4979243;28;97263;-74
2022/05/30 11:41:44;;;;;;;5.40;5.00;;;;;;;16.47;44.89;99801.31;4988442;28;97204;-73
2022/05/30 11:44:18;;;;;;;5.10;4.70;;;;;;;16.78;44.48;99802.78;4987336;28;97732;-74
2022/05/30 11:47:09;;;;;;;5.30;4.90;;;;;;;16.86;44.08;99796.97;4988580;28;101288;-74
2022/05/30 11:49:58;;;;;;;5.05;4.68;;;;;;;17.01;43.25;99800.34;4999842;28;97197;-74
2022/05/30 11:52:52;;;;;;;5.10;4.70;;;;;;;17.01;42.93;99773.84;4971935;28;97381;-73
2022/05/30 11:55:22;;;;;;;4.93;4.50;;;;;;;17.02;43.72;99802.91;4971918;28;97875;-74
2022/05/30 11:57:51;;;;;;;4.97;4.68;;;;;;;16.97;43.65;99787.31;4995488;28;100751;-74
2022/05/30 12:00:19;;;;;;;9.07;8.48;;;;;;;16.91;44.48;99793.03;4981950;28;97303;-74
2022/05/30 12:02:56;;;;;;;8.32;7.82;;;;;;;16.83;44.56;99784.75;5015483;28;97464;-74
2022/05/30 12:05:51;;;;;;;8.80;8.20;;;;;;;16.65;44.56;99791.28;5012342;28;97460;-73
2022/05/30 12:08:50;;;;;;;8.85;8.35;;;;;;;16.59;45.61;99792.53;4983335;28;101535;-79
2022/05/30 12:11:50;;;;;;;8.75;8.20;;;;;;;17.00;45.82;99788.06;4992923;28;97931;-76
2022/05/30 12:14:43;;;;;;;9.52;8.98;;;;;;;17.02;44.97;99751.69;4995087;28;97395;-75
2022/05/30 12:24:18;;;;;;;9.25;8.65;;;;;;;16.85;43.99;99752.88;4975158;28;96814;-81
2022/05/30 12:26:56;;;;;;;8.60;8.00;;;;;;;17.08;44.03;99781.28;4984933;28;97140;-81
2022/05/30 12:29:37;;;;;;;8.32;7.82;;;;;;;17.13;43.54;99786.25;4989141;28;97447;-82
2022/05/30 12:32:09;;;;;;;9.02;8.48;;;;;;;17.00;43.14;99775.66;4988969;28;101307;-82